sensor_id;sensor_type;location;lat;lon;timestamp;pressure;altitude;pressure_sealevel;temperature;humidity
40992;BME280;29633;49.168;9.848;2023-05-12T00:00:41;96569.94;;;17.00;70.86
40992;BME280;29633;49.168;9.848;2023-05-12T00:03:07;96568.47;;;16.97;70.94
40992;BME280;29633;49.168;9.848;2023-05-12T00:05:32;96562.41;;;16.97;70.82
40992;BME280;29633;49.168;9.848;2023-05-12T00:07:58;96563.06;;;16.99;70.93
40992;BME280;29633;49.168;9.848;2023-05-12T00:10:25;96554.41;;;16.98;70.96
40992;BME280;29633;49.168;9.848;2023-05-12T00:12:51;96551.94;;;16.97;70.83
40992;BME280;29633;49.168;9.848;2023-05-12T00:15:17;96548.34;;;16.98;70.86
40992;BME280;29633;49.168;9.848;2023-05-12T00:17:44;96541.94;;;17.00;70.97
40992;BME280;29633;49.168;9.848;2023-05-12T00:20:10;96545.56;;;16.99;70.78
40992;BME280;29633;49.168;9.848;2023-05-12T00:22:36;96541.94;;;17.00;70.79
40992;BME280;29633;49.168;9.848;2023-05-12T00:25:02;96540.13;;;17.01;70.93
40992;BME280;29633;49.168;9.848;2023-05-12T00:27:27;96540.13;;;17.01;70.67
40992;BME280;29633;49.168;9.848;2023-05-12T00:29:56;96541.16;;;17.00;71.01
40992;BME280;29633;49.168;9.848;2023-05-12T00:32:23;96550.78;;;16.99;70.93
40992;BME280;29633;49.168;9.848;2023-05-12T00:34:49;96545.91;;;16.96;71.09
40992;BME280;29633;49.168;9.848;2023-05-12T00:37:15;96548.53;;;16.96;70.86
40992;BME280;29633;49.168;9.848;2023-05-12T00:39:41;96545.09;;;16.96;70.98
40992;BME280;29633;49.168;9.848;2023-05-12T00:42:07;96547.69;;;16.96;71.02
40992;BME280;29633;49.168;9.848;2023-05-12T00:44:32;96539.84;;;16.96;70.82
40992;BME280;29633;49.168;9.848;2023-05-12T00:46:58;96538.84;;;16.97;70.86
40992;BME280;29633;49.168;9.848;2023-05-12T00:49:27;96540.66;;;16.96;70.71
40992;BME280;29633;49.168;9.848;2023-05-12T00:51:54;96546.53;;;16.98;70.59
40992;BME280;29633;49.168;9.848;2023-05-12T00:54:20;96541.44;;;16.97;70.61
40992;BME280;29633;49.168;9.848;2023-05-12T00:56:46;96538.19;;;16.95;70.67
40992;BME280;29633;49.168;9.848;2023-05-12T00:59:12;96540.19;;;16.93;70.66
40992;BME280;29633;49.168;9.848;2023-05-12T01:01:38;96540.00;;;16.94;70.73
40992;BME280;29633;49.168;9.848;2023-05-12T01:04:04;96539.03;;;16.95;70.54
40992;BME280;29633;49.168;9.848;2023-05-12T01:06:53;96540.97;;;16.93;70.73
40992;BME280;29633;49.168;9.848;2023-05-12T01:09:19;96536.91;;;16.91;70.74
40992;BME280;29633;49.168;9.848;2023-05-12T01:11:45;96528.88;;;16.92;70.66
40992;BME280;29633;49.168;9.848;2023-05-12T01:14:11;96531.31;;;16.94;70.76
40992;BME280;29633;49.168;9.848;2023-05-12T01:16:42;96534.94;;;16.93;70.76
40992;BME280;29633;49.168;9.848;2023-05-12T01:19:18;96535.72;;;16.93;70.79
40992;BME280;29633;49.168;9.848;2023-05-12T01:21:48;96536.56;;;16.94;70.78
40992;BME280;29633;49.168;9.848;2023-05-12T01:24:14;96530.50;;;16.93;70.92
40992;BME280;29633;49.168;9.848;2023-05-12T01:26:41;96529.38;;;16.96;70.68
40992;BME280;29633;49.168;9.848;2023-05-12T01:29:07;96531.97;;;16.96;70.71
40992;BME280;29633;49.168;9.848;2023-05-12T01:31:33;96527.56;;;16.96;70.89
40992;BME280;29633;49.168;9.848;2023-05-12T01:33:58;96536.06;;;16.98;71.00
40992;BME280;29633;49.168;9.848;2023-05-12T01:36:24;96533.28;;;17.00;70.75
40992;BME280;29633;49.168;9.848;2023-05-12T01:38:50;96535.72;;;17.01;70.75
40992;BME280;29633;49.168;9.848;2023-05-12T01:41:15;96536.53;;;17.02;70.88
40992;BME280;29633;49.168;9.848;2023-05-12T01:43:41;96543.56;;;17.01;70.87
40992;BME280;29633;49.168;9.848;2023-05-12T01:46:06;96540.97;;;17.01;70.74
40992;BME280;29633;49.168;9.848;2023-05-12T01:48:32;96545.38;;;17.01;70.77
40992;BME280;29633;49.168;9.848;2023-05-12T01:51:01;96537.50;;;17.01;70.94
40992;BME280;29633;49.168;9.848;2023-05-12T01:53:26;96551.28;;;17.03;70.72
40992;BME280;29633;49.168;9.848;2023-05-12T01:55:52;96540.81;;;17.03;70.66
40992;BME280;29633;49.168;9.848;2023-05-12T01:58:17;96546.84;;;17.03;70.58
40992;BME280;29633;49.168;9.848;2023-05-12T02:00:44;96545.84;;;17.04;70.75
40992;BME280;29633;49.168;9.848;2023-05-12T02:03:10;96544.88;;;17.05;70.72
40992;BME280;29633;49.168;9.848;2023-05-12T02:05:36;96546.03;;;17.03;70.82
40992;BME280;29633;49.168;9.848;2023-05-12T02:08:01;96543.22;;;17.04;70.74
40992;BME280;29633;49.168;9.848;2023-05-12T02:10:28;96545.03;;;17.04;70.73
40992;BME280;29633;49.168;9.848;2023-05-12T02:12:54;96545.84;;;17.04;70.95
40992;BME280;29633;49.168;9.848;2023-05-12T02:15:20;96547.66;;;17.04;70.66
40992;BME280;29633;49.168;9.848;2023-05-12T02:17:45;96542.41;;;17.04;70.78
40992;BME280;29633;49.168;9.848;2023-05-12T02:20:13;96543.41;;;17.03;70.85
40992;BME280;29633;49.168;9.848;2023-05-12T02:22:39;96544.41;;;17.02;70.68
40992;BME280;29633;49.168;9.848;2023-05-12T02:25:05;96548.81;;;17.01;70.77
40992;BME280;29633;49.168;9.848;2023-05-12T02:27:31;96539.50;;;16.99;70.84
40992;BME280;29633;49.168;9.848;2023-05-12T02:29:56;96539.50;;;16.99;70.85
40992;BME280;29633;49.168;9.848;2023-05-12T02:32:24;96535.44;;;16.96;70.70
40992;BME280;29633;49.168;9.848;2023-05-12T02:34:56;96533.78;;;16.95;70.88
40992;BME280;29633;49.168;9.848;2023-05-12T02:37:21;96532.97;;;16.95;70.74
40992;BME280;29633;49.168;9.848;2023-05-12T02:39:47;96528.69;;;16.94;70.70
40992;BME280;29633;49.168;9.848;2023-05-12T02:42:13;96529.72;;;16.93;70.83
40992;BME280;29633;49.168;9.848;2023-05-12T02:44:38;96522.81;;;16.92;70.71
40992;BME280;29633;49.168;9.848;2023-05-12T02:47:04;96518.56;;;16.91;70.75
40992;BME280;29633;49.168;9.848;2023-05-12T02:49:30;96531.66;;;16.91;70.56
40992;BME280;29633;49.168;9.848;2023-05-12T02:51:56;96520.56;;;16.89;70.66
40992;BME280;29633;49.168;9.848;2023-05-12T02:54:22;96524.16;;;16.88;70.54
40992;BME280;29633;49.168;9.848;2023-05-12T02:56:48;96525.94;;;16.87;70.74
40992;BME280;29633;49.168;9.848;2023-05-12T02:59:13;96525.31;;;16.85;70.70
40992;BME280;29633;49.168;9.848;2023-05-12T03:01:39;96522.84;;;16.84;70.64
40992;BME280;29633;49.168;9.848;2023-05-12T03:04:04;96516.16;;;16.81;70.75
40992;BME280;29633;49.168;9.848;2023-05-12T03:06:30;96518.78;;;16.81;70.80
40992;BME280;29633;49.168;9.848;2023-05-12T03:08:56;96518.94;;;16.80;70.67
40992;BME280;29633;49.168;9.848;2023-05-12T03:11:22;96522.53;;;16.79;70.75
40992;BME280;29633;49.168;9.848;2023-05-12T03:13:47;96516.66;;;16.77;70.87
40992;BME280;29633;49.168;9.848;2023-05-12T03:16:13;96525.47;;;16.76;70.87
40992;BME280;29633;49.168;9.848;2023-05-12T03:18:38;96522.22;;;16.73;71.10
40992;BME280;29633;49.168;9.848;2023-05-12T03:21:04;96525.00;;;16.72;70.87
40992;BME280;29633;49.168;9.848;2023-05-12T03:23:30;96525.81;;;16.72;71.00
40992;BME280;29633;49.168;9.848;2023-05-12T03:25:55;96528.44;;;16.72;70.88
40992;BME280;29633;49.168;9.848;2023-05-12T03:28:21;96521.56;;;16.71;70.85
40992;BME280;29633;49.168;9.848;2023-05-12T03:30:49;96529.41;;;16.71;70.84
40992;BME280;29633;49.168;9.848;2023-05-12T03:33:14;96523.88;;;16.66;70.94
40992;BME280;29633;49.168;9.848;2023-05-12T03:35:40;96520.44;;;16.66;71.02
40992;BME280;29633;49.168;9.848;2023-05-12T03:38:05;96523.88;;;16.66;71.06
40992;BME280;29633;49.168;9.848;2023-05-12T03:40:33;96519.28;;;16.68;71.13
40992;BME280;29633;49.168;9.848;2023-05-12T03:42:59;96530.22;;;16.72;70.75
40992;BME280;29633;49.168;9.848;2023-05-12T03:45:25;96526.00;;;16.71;70.93
40992;BME280;29633;49.168;9.848;2023-05-12T03:47:50;96522.22;;;16.73;71.07
40992;BME280;29633;49.168;9.848;2023-05-12T03:50:16;96524.84;;;16.73;70.89
40992;BME280;29633;49.168;9.848;2023-05-12T03:52:42;96519.41;;;16.75;70.82
40992;BME280;29633;49.168;9.848;2023-05-12T03:55:08;96526.16;;;16.78;70.94
40992;BME280;29633;49.168;9.848;2023-05-12T03:57:34;96521.53;;;16.80;71.00
40992;BME280;29633;49.168;9.848;2023-05-12T04:00:03;96518.78;;;16.81;70.71
40992;BME280;29633;49.168;9.848;2023-05-12T04:02:29;96523.81;;;16.83;70.70
40992;BME280;29633;49.168;9.848;2023-05-12T04:04:55;96522.03;;;16.83;70.84
40992;BME280;29633;49.168;9.848;2023-05-12T04:07:21;96520.22;;;16.84;70.80
40992;BME280;29633;49.168;9.848;2023-05-12T04:09:47;96525.47;;;16.84;70.82
40992;BME280;29633;49.168;9.848;2023-05-12T04:12:12;96520.88;;;16.86;70.66
40992;BME280;29633;49.168;9.848;2023-05-12T04:14:38;96525.94;;;16.87;70.92
40992;BME280;29633;49.168;9.848;2023-05-12T04:17:04;96522.50;;;16.87;70.56
40992;BME280;29633;49.168;9.848;2023-05-12T04:19:30;96527.94;;;16.85;70.92
40992;BME280;29633;49.168;9.848;2023-05-12T04:21:55;96525.13;;;16.87;70.86
40992;BME280;29633;49.168;9.848;2023-05-12T04:24:21;96526.75;;;16.88;70.72
40992;BME280;29633;49.168;9.848;2023-05-12T04:26:51;96524.78;;;16.90;70.75
40992;BME280;29633;49.168;9.848;2023-05-12T04:29:17;96528.06;;;16.92;70.85
40992;BME280;29633;49.168;9.848;2023-05-12T04:31:42;96528.06;;;16.92;70.75
40992;BME280;29633;49.168;9.848;2023-05-12T04:34:08;96533.13;;;16.93;71.01
40992;BME280;29633;49.168;9.848;2023-05-12T04:36:33;96542.81;;;16.93;70.86
40992;BME280;29633;49.168;9.848;2023-05-12T04:38:59;96538.19;;;16.95;70.90
40992;BME280;29633;49.168;9.848;2023-05-12T04:41:25;96538.03;;;16.96;70.82
40992;BME280;29633;49.168;9.848;2023-05-12T04:43:50;96539.50;;;16.99;70.75
40992;BME280;29633;49.168;9.848;2023-05-12T04:46:16;96544.75;;;16.99;70.84
40992;BME280;29633;49.168;9.848;2023-05-12T04:48:42;96538.69;;;16.98;70.94
40992;BME280;29633;49.168;9.848;2023-05-12T04:51:08;96546.38;;;17.00;70.87
40992;BME280;29633;49.168;9.848;2023-05-12T04:53:33;96542.13;;;16.99;70.87
40992;BME280;29633;49.168;9.848;2023-05-12T04:56:01;96546.19;;;17.01;70.78
40992;BME280;29633;49.168;9.848;2023-05-12T04:58:26;96547.84;;;17.02;70.87
40992;BME280;29633;49.168;9.848;2023-05-12T05:00:54;96550.44;;;17.02;70.97
40992;BME280;29633;49.168;9.848;2023-05-12T05:03:20;96551.91;;;17.05;70.75
40992;BME280;29633;49.168;9.848;2023-05-12T05:05:46;96552.56;;;17.07;70.71
40992;BME280;29633;49.168;9.848;2023-05-12T05:08:14;96559.63;;;17.06;70.81
40992;BME280;29633;49.168;9.848;2023-05-12T05:10:39;96563.06;;;17.07;70.68
40992;BME280;29633;49.168;9.848;2023-05-12T05:13:05;96560.25;;;17.08;70.81
40992;BME280;29633;49.168;9.848;2023-05-12T05:15:31;96561.06;;;17.09;70.81
40992;BME280;29633;49.168;9.848;2023-05-12T05:17:56;96561.06;;;17.09;70.85
40992;BME280;29633;49.168;9.848;2023-05-12T05:20:22;96561.06;;;17.09;70.82
40992;BME280;29633;49.168;9.848;2023-05-12T05:22:48;96563.69;;;17.09;71.08
40992;BME280;29633;49.168;9.848;2023-05-12T05:25:16;96565.34;;;17.10;70.84
40992;BME280;29633;49.168;9.848;2023-05-12T05:27:41;96567.75;;;17.11;70.96
40992;BME280;29633;49.168;9.848;2023-05-12T05:30:07;96572.22;;;17.11;70.79
40992;BME280;29633;49.168;9.848;2023-05-12T05:32:34;96566.31;;;17.09;70.79
40992;BME280;29633;49.168;9.848;2023-05-12T05:35:01;96573.19;;;17.10;70.72
40992;BME280;29633;49.168;9.848;2023-05-12T05:37:27;96564.34;;;17.11;71.00
40992;BME280;29633;49.168;9.848;2023-05-12T05:39:53;96573.00;;;17.11;70.86
40992;BME280;29633;49.168;9.848;2023-05-12T05:42:18;96566.97;;;17.11;70.77
40992;BME280;29633;49.168;9.848;2023-05-12T05:44:44;96570.38;;;17.11;70.86
40992;BME280;29633;49.168;9.848;2023-05-12T05:47:09;96571.22;;;17.12;70.96
40992;BME280;29633;49.168;9.848;2023-05-12T05:49:35;96575.63;;;17.11;70.76
40992;BME280;29633;49.168;9.848;2023-05-12T05:52:01;96577.25;;;17.12;70.98
40992;BME280;29633;49.168;9.848;2023-05-12T05:54:26;96577.44;;;17.11;70.71
40992;BME280;29633;49.168;9.848;2023-05-12T05:56:52;96585.31;;;17.11;70.95
40992;BME280;29633;49.168;9.848;2023-05-12T05:59:18;96575.81;;;17.10;70.88
40992;BME280;29633;49.168;9.848;2023-05-12T06:01:43;96581.03;;;17.10;70.94
40992;BME280;29633;49.168;9.848;2023-05-12T06:04:10;96583.66;;;17.10;70.89
40992;BME280;29633;49.168;9.848;2023-05-12T06:06:35;96588.91;;;17.10;70.84
40992;BME280;29633;49.168;9.848;2023-05-12T06:09:01;96588.91;;;17.10;70.67
40992;BME280;29633;49.168;9.848;2023-05-12T06:11:27;96587.41;;;17.07;70.91
40992;BME280;29633;49.168;9.848;2023-05-12T06:13:52;96589.06;;;17.08;70.95
40992;BME280;29633;49.168;9.848;2023-05-12T06:16:18;96583.19;;;17.06;70.76
40992;BME280;29633;49.168;9.848;2023-05-12T06:18:43;96590.38;;;17.04;70.75
40992;BME280;29633;49.168;9.848;2023-05-12T06:21:09;96588.44;;;17.06;70.92
40992;BME280;29633;49.168;9.848;2023-05-12T06:23:35;96593.47;;;17.08;70.77
40992;BME280;29633;49.168;9.848;2023-05-12T06:26:00;96594.13;;;17.10;70.75
40992;BME280;29633;49.168;9.848;2023-05-12T06:28:26;96592.97;;;17.12;70.81
40992;BME280;29633;49.168;9.848;2023-05-12T06:30:52;96593.81;;;17.13;70.68
40992;BME280;29633;49.168;9.848;2023-05-12T06:33:17;96591.03;;;17.14;70.78
40992;BME280;29633;49.168;9.848;2023-05-12T06:35:43;96597.06;;;17.15;70.67
40992;BME280;29633;49.168;9.848;2023-05-12T06:38:08;96599.69;;;17.15;70.77
40992;BME280;29633;49.168;9.848;2023-05-12T06:40:34;96599.53;;;17.16;70.67
40992;BME280;29633;49.168;9.848;2023-05-12T06:43:00;96602.00;;;17.18;70.63
40992;BME280;29633;49.168;9.848;2023-05-12T06:45:25;96598.34;;;17.19;70.73
40992;BME280;29633;49.168;9.848;2023-05-12T06:47:51;96600.81;;;17.20;70.71
40992;BME280;29633;49.168;9.848;2023-05-12T06:50:17;96593.94;;;17.19;70.71
40992;BME280;29633;49.168;9.848;2023-05-12T06:52:43;96597.22;;;17.21;70.91
40992;BME280;29633;49.168;9.848;2023-05-12T06:55:09;96597.72;;;17.25;70.64
40992;BME280;29633;49.168;9.848;2023-05-12T06:57:35;96601.13;;;17.26;70.61
40992;BME280;29633;49.168;9.848;2023-05-12T07:00:01;96604.41;;;17.28;70.80
40992;BME280;29633;49.168;9.848;2023-05-12T07:02:28;96594.56;;;17.30;70.66
40992;BME280;29633;49.168;9.848;2023-05-12T07:04:54;96599.78;;;17.30;70.80
40992;BME280;29633;49.168;9.848;2023-05-12T07:07:19;96598.00;;;17.30;70.89
40992;BME280;29633;49.168;9.848;2023-05-12T07:09:45;96599.63;;;17.31;70.98
40992;BME280;29633;49.168;9.848;2023-05-12T07:12:11;96606.53;;;17.32;70.87
40992;BME280;29633;49.168;9.848;2023-05-12T07:14:36;96597.66;;;17.33;70.80
40992;BME280;29633;49.168;9.848;2023-05-12T07:17:02;96603.56;;;17.35;70.63
40992;BME280;29633;49.168;9.848;2023-05-12T07:19:28;96599.78;;;17.38;70.90
40992;BME280;29633;49.168;9.848;2023-05-12T07:21:54;96602.06;;;17.41;70.87
40992;BME280;29633;49.168;9.848;2023-05-12T07:24:19;96598.13;;;17.45;70.85
40992;BME280;29633;49.168;9.848;2023-05-12T07:26:45;96609.75;;;17.50;70.62
40992;BME280;29633;49.168;9.848;2023-05-12T07:29:11;96603.47;;;17.51;70.83
40992;BME280;29633;49.168;9.848;2023-05-12T07:31:37;96606.78;;;17.53;70.56
40992;BME280;29633;49.168;9.848;2023-05-12T07:34:03;96601.34;;;17.55;70.81
40992;BME280;29633;49.168;9.848;2023-05-12T07:36:29;96601.06;;;17.58;70.73
40992;BME280;29633;49.168;9.848;2023-05-12T07:38:55;96602.50;;;17.60;70.87
40992;BME280;29633;49.168;9.848;2023-05-12T07:41:20;96604.78;;;17.63;70.67
40992;BME280;29633;49.168;9.848;2023-05-12T07:43:46;96603.34;;;17.61;70.74
40992;BME280;29633;49.168;9.848;2023-05-12T07:46:12;96598.91;;;17.61;70.76
40992;BME280;29633;49.168;9.848;2023-05-12T07:48:37;96599.69;;;17.62;70.76
40992;BME280;29633;49.168;9.848;2023-05-12T07:51:05;96596.91;;;17.63;70.87
40992;BME280;29633;49.168;9.848;2023-05-12T07:53:31;96602.16;;;17.63;70.94
40992;BME280;29633;49.168;9.848;2023-05-12T07:55:57;96597.75;;;17.64;70.72
40992;BME280;29633;49.168;9.848;2023-05-12T07:58:22;96599.38;;;17.65;70.84
40992;BME280;29633;49.168;9.848;2023-05-12T08:00:48;96609.88;;;17.65;70.86
40992;BME280;29633;49.168;9.848;2023-05-12T08:03:14;96603.81;;;17.64;70.99
40992;BME280;29633;49.168;9.848;2023-05-12T08:05:41;96603.16;;;17.62;70.72
40992;BME280;29633;49.168;9.848;2023-05-12T08:08:06;96607.41;;;17.63;70.82
40992;BME280;29633;49.168;9.848;2023-05-12T08:10:36;96605.59;;;17.64;70.84
40992;BME280;29633;49.168;9.848;2023-05-12T08:13:02;96610.84;;;17.64;70.59
40992;BME280;29633;49.168;9.848;2023-05-12T08:15:27;96612.66;;;17.63;70.67
40992;BME280;29633;49.168;9.848;2023-05-12T08:17:53;96605.94;;;17.61;70.72
40992;BME280;29633;49.168;9.848;2023-05-12T08:20:19;96610.84;;;17.64;70.67
40992;BME280;29633;49.168;9.848;2023-05-12T08:22:45;96609.06;;;17.64;70.70
40992;BME280;29633;49.168;9.848;2023-05-12T08:25:12;96608.03;;;17.65;70.57
40992;BME280;29633;49.168;9.848;2023-05-12T08:27:37;96611.13;;;17.69;70.78
40992;BME280;29633;49.168;9.848;2023-05-12T08:30:03;96614.91;;;17.75;70.56
40992;BME280;29633;49.168;9.848;2023-05-12T08:32:29;96607.66;;;17.77;70.65
40992;BME280;29633;49.168;9.848;2023-05-12T08:34:54;96613.84;;;17.84;70.76
40992;BME280;29633;49.168;9.848;2023-05-12T08:37:20;96622.84;;;17.89;70.56
40992;BME280;29633;49.168;9.848;2023-05-12T08:39:46;96612.16;;;17.91;70.62
40992;BME280;29633;49.168;9.848;2023-05-12T08:42:22;96621.53;;;17.93;70.65
40992;BME280;29633;49.168;9.848;2023-05-12T08:44:52;96618.34;;;17.98;70.56
40992;BME280;29633;49.168;9.848;2023-05-12T08:47:18;96614.59;;;18.00;70.76
40992;BME280;29633;49.168;9.848;2023-05-12T08:49:44;96614.72;;;18.07;70.61
40992;BME280;29633;49.168;9.848;2023-05-12T08:52:13;96614.19;;;18.11;70.51
40992;BME280;29633;49.168;9.848;2023-05-12T08:54:43;96611.84;;;18.16;70.70
40992;BME280;29633;49.168;9.848;2023-05-12T08:57:08;96611.34;;;18.21;70.74
40992;BME280;29633;49.168;9.848;2023-05-12T08:59:34;96604.72;;;18.33;70.37
40992;BME280;29633;49.168;9.848;2023-05-12T09:02:00;96598.75;;;18.39;70.65
40992;BME280;29633;49.168;9.848;2023-05-12T09:04:28;96608.22;;;18.48;70.38
40992;BME280;29633;49.168;9.848;2023-05-12T09:06:54;96604.91;;;18.54;70.47
40992;BME280;29633;49.168;9.848;2023-05-12T09:09:20;96614.88;;;18.59;70.56
40992;BME280;29633;49.168;9.848;2023-05-12T09:11:46;96609.28;;;18.62;70.64
40992;BME280;29633;49.168;9.848;2023-05-12T09:14:17;96614.31;;;18.63;70.77
40992;BME280;29633;49.168;9.848;2023-05-12T09:16:46;96617.78;;;18.64;70.61
40992;BME280;29633;49.168;9.848;2023-05-12T09:19:18;96614.63;;;18.68;70.52
40992;BME280;29633;49.168;9.848;2023-05-12T09:21:44;96620.50;;;18.71;70.88
40992;BME280;29633;49.168;9.848;2023-05-12T09:24:10;96624.78;;;18.72;70.79
40992;BME280;29633;49.168;9.848;2023-05-12T09:26:50;96620.88;;;18.67;70.68
40992;BME280;29633;49.168;9.848;2023-05-12T09:29:16;96627.91;;;18.67;71.03
40992;BME280;29633;49.168;9.848;2023-05-12T09:31:52;96633.38;;;18.65;70.84
40992;BME280;29633;49.168;9.848;2023-05-12T09:34:19;96628.28;;;18.64;70.85
40992;BME280;29633;49.168;9.848;2023-05-12T09:37:01;96629.91;;;18.65;70.99
40992;BME280;29633;49.168;9.848;2023-05-12T09:39:27;96636.16;;;18.64;70.85
40992;BME280;29633;49.168;9.848;2023-05-12T09:41:53;96634.19;;;18.66;70.51
40992;BME280;29633;49.168;9.848;2023-05-12T09:44:19;96627.59;;;18.70;70.68
40992;BME280;29633;49.168;9.848;2023-05-12T09:46:46;96629.03;;;18.73;70.43
40992;BME280;29633;49.168;9.848;2023-05-12T09:49:23;96633.13;;;18.75;70.53
40992;BME280;29633;49.168;9.848;2023-05-12T09:51:57;96628.31;;;18.79;70.52
40992;BME280;29633;49.168;9.848;2023-05-12T09:54:30;96624.88;;;18.78;70.66
40992;BME280;29633;49.168;9.848;2023-05-12T09:56:58;96627.34;;;18.80;70.41
40992;BME280;29633;49.168;9.848;2023-05-12T09:59:25;96623.72;;;18.81;70.65
40992;BME280;29633;49.168;9.848;2023-05-12T10:01:55;96617.44;;;18.82;70.50
40992;BME280;29633;49.168;9.848;2023-05-12T10:04:23;96619.56;;;18.86;70.61
40992;BME280;29633;49.168;9.848;2023-05-12T10:06:49;96623.91;;;18.94;70.18
40992;BME280;29633;49.168;9.848;2023-05-12T10:09:27;96623.84;;;19.02;70.43
40992;BME280;29633;49.168;9.848;2023-05-12T10:11:55;96623.50;;;19.05;70.28
40992;BME280;29633;49.168;9.848;2023-05-12T10:14:22;96627.75;;;19.06;70.20
40992;BME280;29633;49.168;9.848;2023-05-12T10:16:48;96629.72;;;19.04;70.53
40992;BME280;29633;49.168;9.848;2023-05-12T10:19:14;96633.34;;;19.03;70.47
40992;BME280;29633;49.168;9.848;2023-05-12T10:21:42;96630.53;;;19.04;70.62
40992;BME280;29633;49.168;9.848;2023-05-12T10:24:12;96634.97;;;19.04;70.49
40992;BME280;29633;49.168;9.848;2023-05-12T10:26:41;96634.81;;;19.05;70.62
40992;BME280;29633;49.168;9.848;2023-05-12T10:29:06;96638.44;;;19.04;70.54
40992;BME280;29633;49.168;9.848;2023-05-12T10:31:33;96639.25;;;19.05;70.36
40992;BME280;29633;49.168;9.848;2023-05-12T10:34:01;96639.25;;;19.05;70.39
40992;BME280;29633;49.168;9.848;2023-05-12T10:36:27;96637.00;;;19.02;70.26
40992;BME280;29633;49.168;9.848;2023-05-12T10:38:53;96637.97;;;19.01;70.60
40992;BME280;29633;49.168;9.848;2023-05-12T10:41:29;96639.16;;;18.98;70.47
40992;BME280;29633;49.168;9.848;2023-05-12T10:43:55;96639.31;;;18.97;70.52
40992;BME280;29633;49.168;9.848;2023-05-12T10:46:21;96641.31;;;18.95;70.30
40992;BME280;29633;49.168;9.848;2023-05-12T10:51:28;96647.94;;;18.91;70.35
40992;BME280;29633;49.168;9.848;2023-05-12T10:54:05;96646.28;;;18.90;70.50
40992;BME280;29633;49.168;9.848;2023-05-12T10:59:17;96646.63;;;18.87;70.24
40992;BME280;29633;49.168;9.848;2023-05-12T11:02:00;96648.63;;;18.85;70.35
40992;BME280;29633;49.168;9.848;2023-05-12T11:07:11;96650.78;;;18.81;70.63
40992;BME280;29633;49.168;9.848;2023-05-12T11:09:39;96656.03;;;18.81;69.88
40992;BME280;29633;49.168;9.848;2023-05-12T11:12:06;96649.78;;;18.82;70.23
40992;BME280;29633;49.168;9.848;2023-05-12T11:14:33;96649.78;;;18.82;70.37
40992;BME280;29633;49.168;9.848;2023-05-12T11:16:59;96650.63;;;18.83;70.39
40992;BME280;29633;49.168;9.848;2023-05-12T11:19:27;96654.22;;;18.82;70.23
40992;BME280;29633;49.168;9.848;2023-05-12T11:21:53;96655.88;;;18.83;70.18
40992;BME280;29633;49.168;9.848;2023-05-12T11:24:20;96652.25;;;18.84;70.42
40992;BME280;29633;49.168;9.848;2023-05-12T11:26:46;96665.19;;;18.85;70.34
40992;BME280;29633;49.168;9.848;2023-05-12T11:29:21;96658.13;;;18.86;70.52
40992;BME280;29633;49.168;9.848;2023-05-12T11:31:48;96659.13;;;18.85;70.28
40992;BME280;29633;49.168;9.848;2023-05-12T11:34:14;96665.38;;;18.84;70.34
40992;BME280;29633;49.168;9.848;2023-05-12T11:36:42;96661.75;;;18.85;70.02
40992;BME280;29633;49.168;9.848;2023-05-12T11:39:21;96666.38;;;18.83;70.10
40992;BME280;29633;49.168;9.848;2023-05-12T11:41:48;96663.91;;;18.81;69.99
40992;BME280;29633;49.168;9.848;2023-05-12T11:44:18;96666.38;;;18.83;70.20
40992;BME280;29633;49.168;9.848;2023-05-12T11:46:58;96662.56;;;18.85;70.06
40992;BME280;29633;49.168;9.848;2023-05-12T11:49:25;96667.47;;;18.88;69.83
40992;BME280;29633;49.168;9.848;2023-05-12T11:51:52;96671.56;;;18.91;69.99
40992;BME280;29633;49.168;9.848;2023-05-12T11:54:18;96667.94;;;18.92;69.90
40992;BME280;29633;49.168;9.848;2023-05-12T11:56:50;96670.22;;;18.95;70.03
40992;BME280;29633;49.168;9.848;2023-05-12T11:59:33;96680.53;;;18.96;69.75
40992;BME280;29633;49.168;9.848;2023-05-12T12:02:02;96670.38;;;18.93;69.98
40992;BME280;29633;49.168;9.848;2023-05-12T12:07:00;96682.06;;;18.91;70.07
40992;BME280;29633;49.168;9.848;2023-05-12T12:09:33;96679.25;;;18.92;69.93
40992;BME280;29633;49.168;9.848;2023-05-12T12:12:00;96687.13;;;18.92;70.10
40992;BME280;29633;49.168;9.848;2023-05-12T12:14:26;96685.31;;;18.93;69.73
40992;BME280;29633;49.168;9.848;2023-05-12T12:16:52;96679.91;;;18.94;70.04
40992;BME280;29633;49.168;9.848;2023-05-12T12:19:17;96681.34;;;18.97;70.08
40992;BME280;29633;49.168;9.848;2023-05-12T12:21:43;96685.44;;;18.99;69.79
40992;BME280;29633;49.168;9.848;2023-05-12T12:24:09;96682.47;;;19.02;69.83
40992;BME280;29633;49.168;9.848;2023-05-12T12:26:34;96683.09;;;19.04;69.95
40992;BME280;29633;49.168;9.848;2023-05-12T12:29:00;96683.91;;;19.05;70.16
40992;BME280;29633;49.168;9.848;2023-05-12T12:31:26;96682.94;;;19.06;70.17
40992;BME280;29633;49.168;9.848;2023-05-12T12:33:54;96684.38;;;19.08;69.92
40992;BME280;29633;49.168;9.848;2023-05-12T12:36:20;96694.06;;;19.08;70.01
40992;BME280;29633;49.168;9.848;2023-05-12T12:38:46;96691.44;;;19.08;70.19
40992;BME280;29633;49.168;9.848;2023-05-12T12:41:12;96694.88;;;19.08;70.34
40992;BME280;29633;49.168;9.848;2023-05-12T12:43:38;96689.16;;;19.05;70.29
40992;BME280;29633;49.168;9.848;2023-05-12T12:46:03;96694.78;;;19.02;69.80
40992;BME280;29633;49.168;9.848;2023-05-12T12:48:29;96692.78;;;19.04;70.19
40992;BME280;29633;49.168;9.848;2023-05-12T12:50:56;96693.78;;;19.03;69.85
40992;BME280;29633;49.168;9.848;2023-05-12T12:53:22;96697.56;;;19.00;69.91
40992;BME280;29633;49.168;9.848;2023-05-12T12:55:48;96707.00;;;18.95;70.07
40992;BME280;29633;49.168;9.848;2023-05-12T12:58:14;96702.09;;;18.92;69.93
40992;BME280;29633;49.168;9.848;2023-05-12T13:00:39;96704.72;;;18.92;70.17
40992;BME280;29633;49.168;9.848;2023-05-12T13:03:05;96703.44;;;18.88;70.09
40992;BME280;29633;49.168;9.848;2023-05-12T13:05:32;96705.25;;;18.87;70.15
40992;BME280;29633;49.168;9.848;2023-05-12T13:07:58;96710.31;;;18.89;69.88